Irving, TX (75014)

10:43 AM CDT on August 29, 2016 (GMT -0500)
Toler Lane, Irving, Texas USA | | Change Station

Elev 551 ft 32.84 °N, 96.96 °W | Updated 3 seconds ago

Scattered Clouds
Scattered Clouds
87.2 °F
Feels Like 97 °F
N
0.0
Wind Variable Wind from North
Gusts 0.0 mph

Today
High -- | Low -- °F
--% Chance of Precip.
Yesterday
High -- | Low -- °F
Precip. -- in
Pressure 30.06 in
Visibility 10.0 miles
Clouds Few 4000 ft
Few 8000 ft
Scattered Clouds 15000 ft
Scattered Clouds 25000 ft
Heat Index 97 °F
Dew Point 75 °F
Humidity 68%
Rainfall 0.00 in
Snow Depth Not available.
7:00 AM 7:55 PM
Waning Crescent, 8% visible
METAR KDFW 291453Z VRB05KT 10SM FEW040 FEW080 SCT150 SCT250 29/22 A3009 RMK AO2 SLP178 CB DSNT SW TCU DSNT SE T02940217 51012
Pressure 30.06 in
Visibility 10.0 miles
Clouds Few 4000 ft
Few 8000 ft
Scattered Clouds 15000 ft
Scattered Clouds 25000 ft
Heat Index 97 °F
Dew Point 75 °F
Humidity 68%
Rainfall 0.00 in
Snow Depth Not available.
7:00 AM 7:55 PM
Waning Crescent, 8% visible
METAR KDFW 291453Z VRB05KT 10SM FEW040 FEW080 SCT150 SCT250 29/22 A3009 RMK AO2 SLP178 CB DSNT SW TCU DSNT SE T02940217 51012

10-Day Weather Forecast

Almanac

Astronomy

Aug. 29, 2016 Rise Set
Actual Time
Civil Twilight
Nautical Twilight
Astronomical Twilight
Moon
Length of Visible Light
Length of Day
Tomorrow will be .
, % of the Moon is Illuminated

Today's Extremes

State Highs State Lows

Community

WunderPhotos

Upload Photos

1,935,859 photos uploaded!

WunderBlog® & News

Nearby

Air Quality

  Air Quality AQ Index Pollutant
Not available.

Snow Depth

Station Depth Elevation

Earthquake Activity

City Distance Mag. Time & Date
Minimum magnitude displayed is 2.5.

Coastal Water Temperatures

Place Temperature

Stations

Nearby Weather Stations

Station Location Temp. Windchill Dew Point Humidity Wind Precip. Elev Updated Type
                   

Watches & Warnings

There are currently no watches in effect.